Time;durP1;ratioP1;P1;durP2;ratioP2;P2;SDS_P1;SDS_P2;PMS_P1;PMS_P2;Temp;Humidity;BMP_temperature;BMP_pressure;BME280_temperature;BME280_humidity;BME280_pressure;Samples;Min_cycle;Max_cycle;Signal;HPM_P1;HPM_P2
2023/06/26 00:00:39;;;;;;;6.60;6.20;;;;;;;19.16;100.00;99136.57;108720;1249;74514;-64
2023/06/26 00:03:07;;;;;;;6.20;5.70;;;;;;;19.14;100.00;99133.57;108737;1250;69145;-64
2023/06/26 00:05:35;;;;;;;8.40;5.80;;;;;;;19.15;100.00;99132.36;108672;1251;72366;-65
2023/06/26 00:08:02;;;;;;;;;;;;;;;19.15;100.00;99132.36;108735;1251;60662;-64
2023/06/26 00:10:30;;;;;;;8.50;5.80;;;;;;;19.13;100.00;99134.48;108713;1251;59435;-64
2023/06/26 00:12:59;;;;;;;8.10;6.20;;;;;;;19.13;100.00;99130.98;108700;1251;73520;-64
2023/06/26 00:15:31;;;;;;;6.40;5.80;;;;;;;19.10;100.00;99124.77;108703;1255;69218;-65
2023/06/26 00:17:59;;;;;;;6.60;5.90;;;;;;;19.09;100.00;99121.88;108669;1254;71764;-65
2023/06/26 00:20:26;;;;;;;6.90;6.10;;;;;;;19.08;100.00;99121.79;108675;1251;61332;-64
2023/06/26 00:22:55;;;;;;;5.90;5.40;;;;;;;19.07;100.00;99114.95;108594;1250;59725;-65
2023/06/26 00:25:23;;;;;;;6.80;6.20;;;;;;;19.06;100.00;99121.58;108550;1249;73616;-64
2023/06/26 00:27:50;;;;;;;8.30;5.90;;;;;;;19.03;100.00;99117.42;108587;1251;68070;-64
2023/06/26 00:30:18;;;;;;;7.10;6.40;;;;;;;19.00;100.00;99116.24;108566;1251;72432;-65
2023/06/26 00:32:45;;;;;;;6.50;5.90;;;;;;;18.93;100.00;99118.80;108556;1250;62370;-64
2023/06/26 00:35:13;;;;;;;6.60;6.00;;;;;;;18.88;100.00;99115.34;108564;1250;59651;-64
2023/06/26 00:37:44;;;;;;;11.90;6.40;;;;;;;18.82;100.00;99110.11;108718;1251;74428;-64
2023/06/26 00:40:12;;;;;;;6.70;6.10;;;;;;;18.82;100.00;99108.77;108681;1250;68283;-64
2023/06/26 00:42:40;;;;;;;8.20;6.50;;;;;;;18.75;100.00;99107.86;108718;1251;72386;-64
2023/06/26 00:45:08;;;;;;;11.40;6.90;;;;;;;18.70;100.00;99107.29;108677;1254;61483;-64
2023/06/26 00:47:36;;;;;;;6.40;5.80;;;;;;;18.64;100.00;99109.66;108722;1250;60336;-64
2023/06/26 00:50:04;;;;;;;7.80;6.90;;;;;;;18.60;100.00;99111.41;108674;1250;74605;-64
2023/06/26 00:52:32;;;;;;;7.50;6.10;;;;;;;18.59;100.00;99112.60;108723;1249;69457;-65
2023/06/26 00:55:00;;;;;;;8.90;6.30;;;;;;;18.56;100.00;99110.17;108572;1256;72345;-65
2023/06/26 00:57:27;;;;;;;6.90;6.30;;;;;;;18.52;100.00;99108.02;108704;1251;60391;-66
2023/06/26 00:59:55;;;;;;;7.50;6.10;;;;;;;18.51;100.00;99106.88;108741;1251;59569;-65
2023/06/26 01:02:23;;;;;;;7.60;6.20;;;;;;;18.52;100.00;99100.27;108721;1251;73655;-64
2023/06/26 01:04:51;;;;;;;7.00;6.00;;;;;;;18.51;100.00;99100.67;108647;1251;69766;-64
2023/06/26 01:07:19;;;;;;;9.60;6.60;;;;;;;18.48;100.00;99097.51;108662;1251;72351;-65
2023/06/26 01:09:48;;;;;;;7.20;6.50;;;;;;;18.44;100.00;99096.84;108393;1250;61420;-63
2023/06/26 01:12:16;;;;;;;7.80;6.30;;;;;;;18.41;100.00;99091.77;108335;1251;59729;-63
2023/06/26 01:14:44;;;;;;;7.00;6.30;;;;;;;18.37;100.00;99102.05;108620;1250;73637;-64
2023/06/26 01:17:15;;;;;;;;;;;;;;;18.35;100.00;99096.94;108640;1254;68104;-63
2023/06/26 01:19:44;;;;;;;9.90;6.50;;;;;;;18.32;100.00;99099.09;108703;1251;72429;-63
2023/06/26 01:22:33;;;;;;;7.20;6.50;;;;;;;18.31;100.00;99096.12;108635;1251;61566;-63
2023/06/26 01:25:10;;;;;;;11.00;6.50;;;;;;;18.28;100.00;99095.65;108690;1251;59657;-64
2023/06/26 01:27:38;;;;;;;6.70;6.20;;;;;;;18.25;100.00;99095.19;108532;1256;74539;-63
2023/06/26 01:30:06;;;;;;;9.50;6.60;;;;;;;18.23;100.00;99101.60;108464;1251;69173;-63
2023/06/26 01:32:35;;;;;;;7.90;6.60;;;;;;;18.22;100.00;99098.46;108569;1251;72484;-64
2023/06/26 01:35:05;;;;;;;7.50;6.50;;;;;;;18.21;100.00;99101.00;108554;1251;62467;-64
2023/06/26 01:37:33;;;;;;;9.00;7.20;;;;;;;18.21;100.00;99100.84;108491;1250;60166;-64
2023/06/26 01:40:07;;;;;;;7.50;6.80;;;;;;;18.23;100.00;99101.23;108629;1251;74146;-64
2023/06/26 01:42:35;;;;;;;6.70;6.10;;;;;;;18.22;100.00;99100.39;108700;1251;69002;-63
2023/06/26 01:45:06;;;;;;;;;;;;;;;18.20;100.00;99103.20;108697;1251;71462;-63
2023/06/26 01:47:35;;;;;;;7.80;7.10;;;;;;;18.19;100.00;99098.02;108614;1250;60450;-64
2023/06/26 01:50:05;;;;;;;;;;;;;;;18.18;100.00;99091.58;108583;1250;59820;-65
2023/06/26 01:52:46;;;;;;;8.90;6.80;;;;;;;18.17;100.00;99093.96;108715;1251;73625;-64
2023/06/26 01:55:35;;;;;;;9.10;6.90;;;;;;;18.20;100.00;99092.76;108661;1251;70326;-63
2023/06/26 01:58:03;;;;;;;7.90;7.00;;;;;;;18.23;100.00;99087.96;108712;1250;72941;-63
2023/06/26 02:00:31;;;;;;;;;;;;;;;18.23;100.00;99084.95;108694;1249;61755;-64
2023/06/26 02:02:59;;;;;;;9.70;6.90;;;;;;;18.20;100.00;99079.84;108635;1251;59475;-64
2023/06/26 02:05:27;;;;;;;8.30;6.70;;;;;;;18.20;100.00;99081.50;108715;1251;73663;-64
2023/06/26 02:07:54;;;;;;;6.80;6.30;;;;;;;18.18;100.00;99082.52;108658;1251;69188;-63
2023/06/26 02:10:22;;;;;;;12.00;6.20;;;;;;;18.19;100.00;99079.59;108669;1251;72336;-64
2023/06/26 02:12:50;;;;;;;7.20;6.50;;;;;;;18.22;100.00;99072.44;108648;1250;60525;-65
2023/06/26 02:15:18;;;;;;;8.40;7.60;;;;;;;18.25;100.00;99067.73;108665;1251;59805;-63
2023/06/26 02:17:48;;;;;;;8.80;6.80;;;;;;;18.28;100.00;99066.06;108738;1252;73709;-65
2023/06/26 02:20:15;;;;;;;8.60;7.70;;;;;;;18.32;100.00;99067.64;108742;1250;69149;-65
2023/06/26 02:22:43;;;;;;;7.50;6.90;;;;;;;18.35;100.00;99073.16;108594;1254;72363;-66
2023/06/26 02:25:12;;;;;;;8.30;7.60;;;;;;;18.36;100.00;99077.09;108614;1253;60351;-67
2023/06/26 02:27:40;;;;;;;7.90;6.90;;;;;;;18.40;100.00;99079.96;108583;1249;60655;-66
2023/06/26 02:30:08;;;;;;;10.50;7.80;;;;;;;18.43;100.00;99079.51;108601;1249;73589;-66
2023/06/26 02:32:36;;;;;;;8.30;7.30;;;;;;;18.46;100.00;99075.92;108617;1249;70032;-66
2023/06/26 02:35:04;;;;;;;7.60;7.00;;;;;;;18.47;100.00;99075.59;108507;1251;73620;-66
2023/06/26 02:37:32;;;;;;;7.20;6.50;;;;;;;18.51;100.00;99075.16;108665;1251;61592;-65
2023/06/26 02:40:00;;;;;;;;;;;;;;;18.52;100.00;99071.50;108685;1251;59702;-63
2023/06/26 02:42:28;;;;;;;7.70;7.00;;;;;;;18.52;100.00;99073.24;108722;1251;74473;-65
2023/06/26 02:44:56;;;;;;;8.10;7.00;;;;;;;18.55;100.00;99078.89;108738;1251;70250;-65
2023/06/26 02:47:24;;;;;;;6.70;6.20;;;;;;;18.63;100.00;99073.95;108660;1251;72328;-66
2023/06/26 02:49:52;;;;;;;8.00;7.30;;;;;;;18.64;100.00;99076.09;108643;1251;61416;-66
2023/06/26 02:52:20;;;;;;;7.20;6.60;;;;;;;18.60;100.00;99071.50;108659;1251;59860;-65
2023/06/26 02:54:47;;;;;;;7.20;6.60;;;;;;;18.62;100.00;99072.96;108626;1250;73673;-65
2023/06/26 02:57:16;;;;;;;10.00;6.90;;;;;;;18.65;100.00;99077.30;108713;1251;69241;-65
2023/06/26 02:59:44;;;;;;;7.30;6.60;;;;;;;18.65;100.00;99077.77;108622;1251;71465;-65
2023/06/26 03:02:12;;;;;;;;;;;;;;;18.70;100.00;99076.86;108645;1250;61457;-65
2023/06/26 03:04:43;;;;;;;7.70;6.70;;;;;;;18.74;100.00;99077.80;108646;1251;58951;-65
2023/06/26 03:07:12;;;;;;;7.70;6.90;;;;;;;18.74;100.00;99073.73;108710;1251;73816;-66
2023/06/26 03:09:41;;;;;;;9.20;7.30;;;;;;;18.76;100.00;99072.25;108664;1249;68119;-65
2023/06/26 03:12:09;;;;;;;8.70;7.00;;;;;;;18.78;100.00;99068.70;108578;1251;72265;-65
2023/06/26 03:14:36;;;;;;;6.60;6.10;;;;;;;18.76;100.00;99068.60;108562;1249;61353;-65
2023/06/26 03:17:05;;;;;;;6.40;5.80;;;;;;;18.75;100.00;99067.60;108595;1251;60713;-65
2023/06/26 03:19:33;;;;;;;6.00;5.50;;;;;;;18.73;100.00;99061.90;108587;1251;73082;-65
2023/06/26 03:22:33;;;;;;;6.90;5.70;;;;;;;18.73;100.00;99064.39;108184;1251;68150;-64
2023/06/26 03:25:01;;;;;;;;;;;;;;;18.74;100.00;99057.77;108605;1251;72357;-64
2023/06/26 03:27:30;;;;;;;6.00;5.40;;;;;;;18.72;100.00;99060.89;108580;1251;61861;-65
2023/06/26 03:29:58;;;;;;;6.10;4.80;;;;;;;18.69;100.00;99060.63;108602;1251;59777;-65
2023/06/26 03:32:26;;;;;;;5.30;4.80;;;;;;;18.71;100.00;99058.30;108613;1251;72866;-65
2023/06/26 03:34:54;;;;;;;5.20;4.80;;;;;;;18.73;100.00;99060.30;108620;1251;69189;-67
2023/06/26 03:37:22;;;;;;;6.70;4.90;;;;;;;18.75;100.00;99060.13;108656;1251;72477;-64
2023/06/26 03:39:50;;;;;;;5.00;4.60;;;;;;;18.78;100.00;99066.59;108614;1251;61793;-65
2023/06/26 03:42:17;;;;;;;;;;;;;;;18.82;100.00;99065.20;108683;1250;60872;-64
2023/06/26 03:44:45;;;;;;;5.90;5.40;;;;;;;18.82;100.00;99066.14;108613;1250;73662;-64
2023/06/26 03:47:12;;;;;;;8.00;6.00;;;;;;;18.84;100.00;99065.75;108674;1250;69605;-64
2023/06/26 03:49:40;;;;;;;6.70;5.80;;;;;;;18.91;100.00;99066.09;108680;1249;72820;-65
2023/06/26 03:52:08;;;;;;;6.00;5.30;;;;;;;18.97;100.00;99062.16;108674;1251;61794;-66
2023/06/26 03:54:36;;;;;;;;;;;;;;;18.98;100.00;99058.88;108736;1251;58701;-65
2023/06/26 03:57:03;;;;;;;6.50;5.70;;;;;;;18.92;100.00;99061.89;108696;1250;73879;-64
2023/06/26 03:59:31;;;;;;;6.50;5.90;;;;;;;18.96;100.00;99058.52;108627;1249;69038;-63
2023/06/26 04:01:59;;;;;;;;;;;;;;;19.03;100.00;99058.29;108704;1251;72885;-63
2023/06/26 04:04:26;;;;;;;;;;;;;;;19.05;100.00;99056.52;108691;1251;61525;-67
2023/06/26 04:06:54;;;;;;;6.40;5.90;;;;;;;19.06;100.00;99052.70;108597;1249;60417;-66
2023/06/26 04:09:22;;;;;;;5.90;5.30;;;;;;;19.07;100.00;99047.80;108683;1249;74292;-67
2023/06/26 04:11:51;;;;;;;6.30;5.70;;;;;;;19.09;100.00;99046.91;108671;1250;69032;-68
2023/06/26 04:14:19;;;;;;;;;;;;;;;19.11;100.00;99044.58;108727;1251;72460;-66
2023/06/26 04:16:46;;;;;;;;;;;;;;;19.15;100.00;99045.90;108727;1250;61357;-66
2023/06/26 04:19:14;;;;;;;;;;;;;;;19.19;100.00;99047.08;108722;1250;59529;-67
2023/06/26 04:21:42;;;;;;;5.90;5.40;;;;;;;19.21;100.00;99044.46;108708;1251;74269;-67
2023/06/26 04:24:10;;;;;;;5.50;5.10;;;;;;;19.21;100.00;99047.98;108643;1251;68038;-66
2023/06/26 04:26:41;;;;;;;7.40;5.40;;;;;;;19.29;100.00;99047.85;108621;1251;71537;-66
2023/06/26 04:29:10;;;;;;;6.00;5.30;;;;;;;19.34;100.00;99050.04;108608;1251;61420;-66
2023/06/26 04:31:38;;;;;;;5.60;5.10;;;;;;;19.39;100.00;99047.51;108574;1252;60674;-66
2023/06/26 04:34:06;;;;;;;7.80;5.30;;;;;;;19.42;100.00;99045.23;108450;1250;73784;-66
2023/06/26 04:36:38;;;;;;;5.20;4.80;;;;;;;19.46;100.00;99042.95;108565;1251;69780;-66
2023/06/26 04:39:06;;;;;;;5.70;5.20;;;;;;;19.52;100.00;99039.96;108642;1251;72687;-66
2023/06/26 04:41:34;;;;;;;5.80;5.30;;;;;;;19.54;100.00;99039.39;108733;1251;61390;-66
2023/06/26 04:44:02;;;;;;;5.70;5.20;;;;;;;19.56;100.00;99039.18;108689;1250;59716;-66
2023/06/26 04:46:30;;;;;;;6.10;5.50;;;;;;;19.55;100.00;99044.25;108716;1251;73596;-65
2023/06/26 04:48:57;;;;;;;;;;;;;;;19.56;100.00;99045.77;108730;1250;69276;-66
2023/06/26 04:51:26;;;;;;;6.00;5.50;;;;;;;19.53;100.00;99046.04;108667;1251;73321;-65
2023/06/26 04:53:54;;;;;;;6.30;5.80;;;;;;;19.54;100.00;99046.64;108744;1251;60502;-65
2023/06/26 04:56:22;;;;;;;;;;;;;;;19.59;100.00;99047.45;108698;1251;59720;-65
2023/06/26 04:58:50;;;;;;;5.30;4.90;;;;;;;19.58;100.00;99043.64;108706;1250;72852;-65
2023/06/26 05:01:17;;;;;;;5.80;5.30;;;;;;;19.64;100.00;99047.16;108755;1249;70030;-65
2023/06/26 05:03:45;;;;;;;;;;;;;;;19.74;100.00;99040.98;108722;1250;71911;-66
2023/06/26 05:06:13;;;;;;;5.60;5.10;;;;;;;19.79;100.00;99037.47;108661;1254;62399;-66
2023/06/26 05:08:41;;;;;;;7.20;5.30;;;;;;;19.74;100.00;99026.98;108717;1251;59336;-65
2023/06/26 05:11:09;;;;;;;6.90;5.60;;;;;;;19.71;100.00;99026.01;108762;1250;73772;-65
2023/06/26 05:13:36;;;;;;;6.20;5.60;;;;;;;19.71;100.00;99023.15;108694;1250;69044;-66
2023/06/26 05:16:04;;;;;;;;;;;;;;;19.78;100.00;99020.48;108645;1251;72886;-65
2023/06/26 05:18:32;;;;;;;5.70;5.30;;;;;;;19.93;100.00;99017.26;108609;1251;60632;-66
2023/06/26 05:21:00;;;;;;;6.60;6.10;;;;;;;20.04;100.00;99011.98;108701;1251;59761;-64
2023/06/26 05:23:30;;;;;;;6.50;6.00;;;;;;;20.12;100.00;99008.58;108726;1250;73517;-65
2023/06/26 05:25:58;;;;;;;10.10;5.40;;;;;;;20.16;100.00;99006.88;108556;1251;69416;-65
2023/06/26 05:28:27;;;;;;;5.70;5.30;;;;;;;20.22;100.00;99002.46;108605;1251;73444;-64
2023/06/26 05:30:55;;;;;;;6.10;5.50;;;;;;;20.25;100.00;98999.53;107676;1250;1149036;-64
2023/06/26 05:34:34;;;;;;;5.10;4.70;;;;;;;20.15;100.00;98998.15;101542;1295;601210;-65
2023/06/26 05:37:01;;;;;;;5.90;5.30;;;;;;;20.42;100.00;98993.44;103651;1267;61992;-66
2023/06/26 05:39:30;;;;;;;;;;;;;;;20.44;100.00;98990.59;103870;1267;60070;-64
2023/06/26 05:41:58;;;;;;;5.50;5.00;;;;;;;20.44;100.00;98995.45;103461;1288;72113;-64
2023/06/26 05:44:25;;;;;;;6.50;5.80;;;;;;;20.46;100.00;98998.63;103990;1263;68194;-65
2023/06/26 05:46:53;;;;;;;;;;;;;;;20.50;100.00;98998.11;103857;1273;72399;-65
2023/06/26 05:49:21;;;;;;;5.90;5.40;;;;;;;20.47;100.00;98995.46;103972;1262;152191;-66
2023/06/26 05:51:49;;;;;;;5.90;5.40;;;;;;;20.49;100.00;98990.17;104158;1273;59758;-67
2023/06/26 05:54:17;;;;;;;5.80;5.20;;;;;;;20.59;100.00;98989.04;104035;1262;71950;-64
2023/06/26 05:56:46;;;;;;;6.50;5.80;;;;;;;20.68;100.00;98984.83;104164;1279;69591;-63
2023/06/26 05:59:14;;;;;;;5.90;5.40;;;;;;;20.77;100.00;98983.77;104187;1269;72919;-65
2023/06/26 06:01:42;;;;;;;5.30;4.90;;;;;;;20.86;100.00;98980.06;104080;1269;61689;-66
2023/06/26 06:04:10;;;;;;;6.10;5.60;;;;;;;20.97;100.00;98975.63;104069;1259;59693;-64
2023/06/26 06:06:38;;;;;;;;;;;;;;;21.00;100.00;98971.45;104090;1263;72916;-64
2023/06/26 06:09:06;;;;;;;6.30;5.70;;;;;;;20.91;100.00;98972.14;104189;1267;69107;-65
2023/06/26 06:11:33;;;;;;;6.00;5.50;;;;;;;20.80;100.00;98974.95;104004;1261;72613;-65
2023/06/26 06:14:01;;;;;;;5.80;5.30;;;;;;;20.79;100.00;98978.79;104070;1262;61467;-65
2023/06/26 06:16:29;;;;;;;7.60;5.50;;;;;;;20.76;100.00;98976.00;104119;1255;59647;-67
2023/06/26 06:18:56;;;;;;;;;;;;;;;20.74;100.00;98979.28;104113;1263;72978;-65
2023/06/26 06:21:24;;;;;;;8.50;6.00;;;;;;;20.70;100.00;98972.17;104268;1268;69679;-64
2023/06/26 06:23:52;;;;;;;;;;;;;;;20.68;100.00;98976.32;104482;1259;73040;-62
2023/06/26 06:26:20;;;;;;;;;;;;;;;20.62;100.00;98985.36;108045;1257;63290;-64
2023/06/26 06:28:47;;;;;;;;;;;;;;;20.61;100.00;98982.77;106605;1259;59631;-66
2023/06/26 06:31:15;;;;;;;;;;;;;;;20.64;100.00;98983.25;104737;1263;73021;-65
2023/06/26 06:33:43;;;;;;;6.60;6.00;;;;;;;20.61;100.00;98982.65;104703;1260;69343;-64
2023/06/26 06:36:10;;;;;;;6.60;5.90;;;;;;;20.63;100.00;98983.34;104313;1267;72389;-63
2023/06/26 06:38:38;;;;;;;6.30;5.70;;;;;;;20.68;100.00;98985.77;104659;1256;61401;-64
2023/06/26 06:41:06;;;;;;;6.90;6.30;;;;;;;20.79;100.00;98984.52;104291;1269;59797;-63
2023/06/26 06:43:34;;;;;;;6.60;6.00;;;;;;;20.85;100.00;98980.16;104590;1264;73706;-63
2023/06/26 06:46:02;;;;;;;6.20;5.70;;;;;;;20.90;100.00;98978.09;104334;1261;69576;-63
2023/06/26 06:48:30;;;;;;;;;;;;;;;20.92;100.00;98974.90;104276;1267;72406;-63
2023/06/26 06:50:58;;;;;;;9.50;5.80;;;;;;;20.93;100.00;98975.84;104326;1257;60383;-63
2023/06/26 06:53:25;;;;;;;6.60;5.90;;;;;;;20.96;100.00;98976.59;104293;1258;59924;-63
2023/06/26 06:55:53;;;;;;;;;;;;;;;21.02;100.00;98972.14;104332;1270;71775;-64
2023/06/26 06:58:22;;;;;;;;;;;;;;;21.01;100.00;98971.52;104235;1259;68402;-64
2023/06/26 07:00:51;;;;;;;5.20;4.80;;;;;;;20.80;100.00;98968.23;104318;1254;72382;-64
2023/06/26 07:03:21;;;;;;;4.70;4.30;;;;;;;20.81;100.00;98965.41;104591;1258;60700;-64
2023/06/26 07:05:49;;;;;;;4.80;4.40;;;;;;;20.82;100.00;98968.70;104314;1260;59835;-64
2023/06/26 07:08:17;;;;;;;4.50;4.10;;;;;;;20.85;100.00;98966.34;104394;1260;73738;-63
2023/06/26 07:10:45;;;;;;;4.70;4.40;;;;;;;20.82;100.00;98966.72;104282;1269;69588;-63
2023/06/26 07:13:13;;;;;;;4.40;4.00;;;;;;;20.77;100.00;98964.92;104325;1260;72566;-64
2023/06/26 07:15:40;;;;;;;5.40;3.80;;;;;;;20.76;100.00;98960.38;104630;1260;60527;-62
2023/06/26 07:18:08;;;;;;;3.80;3.50;;;;;;;20.84;100.00;98960.36;104412;1261;60081;-64
2023/06/26 07:20:36;;;;;;;;;;;;;;;20.99;100.00;98961.50;107567;1257;72917;-64
2023/06/26 07:23:04;;;;;;;3.80;3.10;;;;;;;21.16;100.00;98962.41;104475;1260;68702;-63
2023/06/26 07:25:32;;;;;;;6.40;3.20;;;;;;;21.34;100.00;98955.77;104342;1260;71418;-64
2023/06/26 07:28:00;;;;;;;3.70;3.20;;;;;;;21.50;100.00;98963.55;104673;1256;61346;-64
2023/06/26 07:30:27;;;;;;;;;;;;;;;21.51;100.00;98961.14;104245;1257;60379;-63
2023/06/26 07:32:55;;;;;;;3.30;3.10;;;;;;;21.44;100.00;98963.60;104391;1255;72953;-64
2023/06/26 07:35:24;;;;;;;;;;;;;;;21.36;100.00;98965.40;104329;1278;69084;-65
2023/06/26 07:37:52;;;;;;;3.20;3.00;;;;;;;21.34;100.00;98970.99;104327;1260;72919;-63
2023/06/26 07:40:20;;;;;;;3.10;2.90;;;;;;;21.31;100.00;98972.87;104522;1257;60518;-62
2023/06/26 07:42:48;;;;;;;3.80;3.60;;;;;;;21.25;100.00;98976.17;104286;1264;60059;-62
2023/06/26 07:45:16;;;;;;;;;;;;;;;21.21;100.00;98975.75;104416;1256;73759;-62
2023/06/26 07:47:43;;;;;;;6.50;3.50;;;;;;;21.13;100.00;98969.83;104704;1260;69036;-62
2023/06/26 07:50:11;;;;;;;4.20;3.40;;;;;;;21.04;100.00;98974.75;104305;1265;73347;-62
2023/06/26 07:52:39;;;;;;;6.00;3.60;;;;;;;20.99;100.00;98968.08;104296;1270;61384;-65
2023/06/26 07:55:07;;;;;;;5.30;3.30;;;;;;;21.08;100.00;98970.48;104300;1260;60074;-65
2023/06/26 07:57:35;;;;;;;3.40;3.10;;;;;;;21.21;100.00;98968.11;104245;1260;72842;-66
2023/06/26 08:00:06;;;;;;;;;;;;;;;21.23;100.00;98958.35;104318;1270;68486;-67
2023/06/26 08:02:40;;;;;;;3.10;2.90;;;;;;;21.27;100.00;98957.73;104256;1257;72459;-65
2023/06/26 08:05:08;;;;;;;3.90;2.90;;;;;;;21.27;100.00;98958.09;104277;1263;61772;-67
2023/06/26 08:07:36;;;;;;;5.20;2.80;;;;;;;21.27;100.00;98965.25;104579;1257;60127;-66
2023/06/26 08:10:05;;;;;;;3.00;2.70;;;;;;;21.30;100.00;98960.69;104713;1256;73229;-66
2023/06/26 08:12:33;;;;;;;4.30;3.00;;;;;;;21.37;100.00;98963.06;104528;1258;69963;-65
2023/06/26 08:15:02;;;;;;;3.70;2.70;;;;;;;21.48;100.00;98963.52;104499;1258;71111;-65
2023/06/26 08:17:30;;;;;;;3.30;3.00;;;;;;;21.54;100.00;98963.29;104479;1259;59812;-66
2023/06/26 08:19:58;;;;;;;3.90;2.90;;;;;;;21.58;100.00;98966.33;104297;1259;59813;-65
2023/06/26 08:22:26;;;;;;;3.30;3.10;;;;;;;21.51;100.00;98971.13;104359;1266;71771;-65
2023/06/26 08:24:54;;;;;;;;;;;;;;;21.39;100.00;98976.55;104575;1253;70115;-67
2023/06/26 08:27:21;;;;;;;;;;;;;;;21.33;100.00;98975.11;108252;1254;72697;-67
2023/06/26 08:29:49;;;;;;;3.30;3.10;;;;;;;21.39;100.00;98980.25;107341;1254;59751;-67
2023/06/26 08:32:16;;;;;;;;;;;;;;;21.49;100.00;98979.11;104569;1253;60074;-65
2023/06/26 08:34:44;;;;;;;;;;;;;;;21.51;100.00;98975.75;105268;1255;73697;-65
2023/06/26 08:37:15;;;;;;;3.40;3.10;;;;;;;21.44;100.00;98972.89;105242;1256;69411;-66
2023/06/26 08:39:43;;;;;;;3.00;2.70;;;;;;;21.40;100.00;98970.73;104847;1261;71844;-64
2023/06/26 08:42:10;;;;;;;2.60;2.30;;;;;;;21.45;100.00;98964.92;104678;1253;59795;-66
2023/06/26 08:44:38;;;;;;;2.40;2.20;;;;;;;21.46;100.00;98966.28;104428;1254;59828;-66
2023/06/26 08:47:23;;;;;;;4.10;2.40;;;;;;;21.41;100.00;98968.90;104524;1257;72745;-68
2023/06/26 08:50:13;;;;;;;2.70;2.40;;;;;;;21.40;100.00;98969.89;104675;1256;69658;-66
2023/06/26 08:52:44;;;;;;;2.60;2.40;;;;;;;21.44;100.00;98976.58;104406;1257;72454;-66
2023/06/26 08:55:12;;;;;;;6.40;2.40;;;;;;;21.50;100.00;98973.02;104299;1258;60667;-67
2023/06/26 08:57:40;;;;;;;;;;;;;;;21.63;100.00;98972.25;104427;1257;60739;-67
2023/06/26 09:00:09;;;;;;;6.90;2.30;;;;;;;21.72;100.00;98968.27;104253;1257;73301;-66
2023/06/26 09:02:36;;;;;;;2.40;2.20;;;;;;;21.74;100.00;98968.24;104401;1266;70280;-65
2023/06/26 09:05:04;;;;;;;;;;;;;;;21.74;100.00;98973.80;104408;1255;73023;-67
2023/06/26 09:07:32;;;;;;;3.90;1.60;;;;;;;21.77;100.00;98970.61;104375;1254;62420;-67
2023/06/26 09:10:00;;;;;;;2.60;1.40;;;;;;;21.78;100.00;98972.14;104488;1257;60085;-65
2023/06/26 09:12:28;;;;;;;2.80;1.60;;;;;;;21.73;100.00;98981.81;104422;1254;73250;-65
2023/06/26 09:14:56;;;;;;;5.40;1.60;;;;;;;21.72;100.00;98983.61;104380;1270;69144;-68
2023/06/26 09:17:25;;;;;;;;;;;;;;;21.77;100.00;98980.81;104504;1254;72414;-67
2023/06/26 09:19:53;;;;;;;3.40;1.50;;;;;;;21.96;100.00;98978.99;104525;1263;61544;-67
2023/06/26 09:22:22;;;;;;;4.00;1.00;;;;;;;22.19;100.00;98980.39;104888;1253;60352;-67
2023/06/26 09:24:50;;;;;;;3.00;1.30;;;;;;;22.34;100.00;98984.04;104633;1253;73018;-67
2023/06/26 09:27:18;;;;;;;3.00;1.10;;;;;;;22.44;100.00;98984.23;104329;1259;69517;-66
2023/06/26 09:29:46;;;;;;;;;;;;;;;22.48;100.00;98981.41;104320;1257;72544;-66
2023/06/26 09:32:14;;;;;;;1.30;0.90;;;;;;;22.48;100.00;98974.58;104426;1267;60680;-67
2023/06/26 09:34:43;;;;;;;;;;;;;;;22.61;100.00;98974.85;104405;1254;59753;-68
2023/06/26 09:37:13;;;;;;;2.30;1.00;;;;;;;22.78;100.00;98974.51;104343;1257;73176;-66
2023/06/26 09:39:41;;;;;;;1.10;1.00;;;;;;;22.81;100.00;98971.38;104396;1257;69629;-65
2023/06/26 09:42:09;;;;;;;1.00;0.90;;;;;;;22.69;100.00;98967.73;104433;1256;72720;-65
2023/06/26 09:44:43;;;;;;;0.80;0.80;;;;;;;22.51;100.00;98971.25;104335;1259;60833;-68
2023/06/26 09:47:10;;;;;;;1.10;0.80;;;;;;;22.26;100.00;98975.80;104503;1258;60581;-65
2023/06/26 09:49:45;;;;;;;1.20;0.70;;;;;;;22.15;100.00;98973.23;104312;1258;73677;-67
2023/06/26 09:52:16;;;;;;;0.60;0.60;;;;;;;22.09;100.00;98978.48;104491;1266;69234;-63
2023/06/26 09:54:44;;;;;;;3.30;1.10;;;;;;;22.01;100.00;98982.61;104380;1261;72592;-65
2023/06/26 09:57:13;;;;;;;0.80;0.80;;;;;;;21.98;100.00;98981.77;104498;1264;61840;-64
2023/06/26 09:59:42;;;;;;;1.80;0.80;;;;;;;22.01;100.00;98981.86;104452;1257;60500;-65
2023/06/26 10:02:11;;;;;;;0.90;0.90;;;;;;;22.13;100.00;98980.98;104317;1255;73735;-67
2023/06/26 10:04:38;;;;;;;1.50;0.80;;;;;;;22.19;100.00;98974.80;104399;1255;69059;-66
2023/06/26 10:07:13;;;;;;;0.70;0.70;;;;;;;22.30;100.00;98981.20;104261;1271;71730;-65
2023/06/26 10:09:42;;;;;;;1.50;1.00;;;;;;;22.35;100.00;98976.48;104508;1261;60635;-67
2023/06/26 10:12:15;;;;;;;3.70;1.00;;;;;;;22.43;100.00;98977.93;104448;1257;60947;-67
2023/06/26 10:14:43;;;;;;;1.70;1.00;;;;;;;22.55;100.00;98974.94;104473;1257;74502;-65
2023/06/26 10:17:16;;;;;;;2.10;0.90;;;;;;;22.66;100.00;98977.73;104308;1275;69007;-63
2023/06/26 10:19:45;;;;;;;1.60;1.10;;;;;;;22.63;100.00;98980.17;104377;1264;72346;-67
2023/06/26 10:22:18;;;;;;;1.20;0.90;;;;;;;22.64;100.00;98977.08;104480;1260;62021;-66
2023/06/26 10:24:50;;;;;;;1.00;1.00;;;;;;;22.69;100.00;98979.93;104441;1259;60556;-67
2023/06/26 10:27:20;;;;;;;7.70;1.30;;;;;;;22.65;100.00;98982.48;104315;1257;73635;-67
2023/06/26 10:29:53;;;;;;;0.90;0.80;;;;;;;22.54;100.00;98981.11;105932;1251;69752;-63
2023/06/26 10:32:21;;;;;;;1.20;1.10;;;;;;;22.40;100.00;98988.59;105935;1254;72511;-62
2023/06/26 10:34:50;;;;;;;1.20;1.10;;;;;;;22.26;100.00;98990.19;104593;1266;61452;-64
2023/06/26 10:37:17;;;;;;;5.30;1.30;;;;;;;22.15;100.00;98992.36;104684;1258;59640;-65
2023/06/26 10:39:49;;;;;;;1.50;1.20;;;;;;;22.12;100.00;98996.76;104614;1254;73092;-64
2023/06/26 10:42:18;;;;;;;1.50;1.00;;;;;;;22.10;100.00;99000.50;104589;1257;69040;-63
2023/06/26 10:44:47;;;;;;;1.30;1.20;;;;;;;22.10;100.00;99001.06;104646;1254;72448;-65
2023/06/26 10:47:31;;;;;;;2.10;1.00;;;;;;;22.01;100.00;99000.22;104529;1258;61425;-61
2023/06/26 10:50:25;;;;;;;2.30;1.10;;;;;;;22.02;100.00;99003.11;104379;1255;60123;-63
2023/06/26 10:53:08;;;;;;;3.00;1.10;;;;;;;22.19;100.00;99001.57;104484;1267;74688;-64
2023/06/26 10:55:36;;;;;;;1.10;1.00;;;;;;;22.38;100.00;99005.95;104516;1266;69488;-63
2023/06/26 10:58:04;;;;;;;1.30;1.20;;;;;;;22.57;100.00;99006.27;108325;1251;72929;-64
2023/06/26 11:00:32;;;;;;;1.50;1.40;;;;;;;22.83;100.00;99005.59;108526;1253;59806;-65
2023/06/26 11:03:01;;;;;;;1.40;1.30;;;;;;;23.09;100.00;98996.67;108370;1253;59732;-63
2023/06/26 11:05:29;;;;;;;1.50;1.40;;;;;;;23.29;100.00;98993.53;108516;1253;73639;-64
2023/06/26 11:08:07;;;;;;;2.00;1.30;;;;;;;23.53;100.00;98987.33;108478;1252;68849;-64
2023/06/26 11:10:52;;;;;;;2.20;1.50;;;;;;;23.85;100.00;98985.40;108431;1254;72219;-68
2023/06/26 11:13:21;;;;;;;2.20;1.40;;;;;;;24.15;100.00;98978.57;108513;1253;60261;-66
2023/06/26 11:15:49;;;;;;;3.60;1.60;;;;;;;24.28;100.00;98979.94;108513;1253;60106;-65
2023/06/26 11:18:17;;;;;;;1.10;1.00;;;;;;;24.31;100.00;98977.98;108422;1251;74350;-64
2023/06/26 11:20:45;;;;;;;2.30;1.30;;;;;;;24.24;100.00;98986.18;108435;1252;69590;-64
2023/06/26 11:23:12;;;;;;;;;;;;;;;24.15;100.00;98987.30;108537;1253;72373;-63
2023/06/26 11:25:40;;;;;;;1.60;1.50;;;;;;;23.96;100.00;98983.98;108319;1252;59877;-65
2023/06/26 11:28:09;;;;;;;2.60;1.30;;;;;;;23.67;100.00;98993.39;108619;1251;60097;-68
2023/06/26 11:30:36;;;;;;;3.60;1.40;;;;;;;23.47;100.00;98998.02;108538;1251;74091;-66
2023/06/26 11:33:06;;;;;;;4.70;1.50;;;;;;;23.32;100.00;99000.89;108530;1253;70121;-66
2023/06/26 11:35:33;;;;;;;5.60;1.60;;;;;;;23.22;100.00;98999.75;108205;1253;73687;-66